Time;durP1;ratioP1;P1;durP2;ratioP2;P2;SDS_P1;SDS_P2;PMS_P1;PMS_P2;Temp;Humidity;BMP_temperature;BMP_pressure;BME280_temperature;BME280_humidity;BME280_pressure;Samples;Min_cycle;Max_cycle;Signal;HPM_P1;HPM_P2
2022/03/12 00:01:35;;;;;;;6.82;3.90;;;;;;;10.56;24.25;99810.84;5113681;28;20048;-60
2022/03/12 00:04:04;;;;;;;6.80;3.92;;;;;;;10.54;24.12;99812.72;5112948;28;20505;-60
2022/03/12 00:06:30;;;;;;;9.32;4.40;;;;;;;10.51;24.13;99810.28;5111540;28;20056;-61
2022/03/12 00:08:57;;;;;;;6.30;4.20;;;;;;;10.48;24.56;99800.78;5112212;28;20488;-61
2022/03/12 00:11:35;;;;;;;6.28;4.35;;;;;;;10.42;24.53;99807.19;5112287;28;20488;-60
2022/03/12 00:14:04;;;;;;;6.25;4.15;;;;;;;10.42;24.53;99816.84;5111456;28;20089;-60
2022/03/12 00:16:32;;;;;;;7.72;4.53;;;;;;;10.40;24.58;99819.56;5112589;28;20146;-61
2022/03/12 00:19:01;;;;;;;6.25;4.35;;;;;;;10.36;24.51;99804.88;5111331;28;20173;-61
2022/03/12 00:21:30;;;;;;;10.77;4.28;;;;;;;10.35;25.14;99810.25;5112189;28;20048;-60
2022/03/12 00:23:59;;;;;;;5.82;4.05;;;;;;;10.32;24.63;99813.88;5111251;28;20044;-62
2022/03/12 00:26:29;;;;;;;6.50;4.07;;;;;;;10.28;24.60;99810.56;5112649;28;20051;-62
2022/03/12 00:28:56;;;;;;;6.70;3.88;;;;;;;10.26;24.69;99807.19;5112627;28;20100;-62
2022/03/12 00:31:23;;;;;;;6.72;4.05;;;;;;;10.25;24.76;99808.09;5110758;28;20066;-61
2022/03/12 00:33:50;;;;;;;7.25;4.10;;;;;;;10.22;24.70;99805.66;5112219;28;20059;-60
2022/03/12 00:36:17;;;;;;;5.85;4.55;;;;;;;10.22;24.65;99803.03;5112325;28;20047;-61
2022/03/12 00:38:45;;;;;;;10.15;4.63;;;;;;;10.20;24.45;99799.63;5111054;28;20435;-60
2022/03/12 00:41:13;;;;;;;6.65;4.57;;;;;;;10.19;24.81;99808.44;5112079;28;20109;-61
2022/03/12 00:43:40;;;;;;;6.28;4.50;;;;;;;10.20;24.70;99815.41;5112491;28;20109;-61
2022/03/12 00:46:06;;;;;;;7.20;4.25;;;;;;;10.17;24.80;99818.22;5112088;28;20098;-60
2022/03/12 00:48:34;;;;;;;8.38;4.40;;;;;;;10.14;24.82;99808.69;5110922;28;20051;-60
2022/03/12 00:51:05;;;;;;;6.43;4.15;;;;;;;10.12;24.55;99804.44;5111500;28;20040;-61
2022/03/12 00:53:31;;;;;;;5.85;4.28;;;;;;;10.11;24.47;99810.66;5112092;28;20164;-60
2022/03/12 00:55:58;;;;;;;7.35;4.30;;;;;;;10.08;24.86;99795.88;5112117;28;20393;-61
2022/03/12 00:58:25;;;;;;;7.95;4.18;;;;;;;10.06;24.68;99794.28;5093833;28;20109;-60
2022/03/12 01:00:51;;;;;;;10.33;4.90;;;;;;;10.04;24.54;99799.59;5072833;28;1094435;-60
2022/03/12 01:03:18;;;;;;;6.05;4.38;;;;;;;10.02;24.83;99798.84;5113347;28;20523;-60
2022/03/12 01:05:48;;;;;;;7.38;4.18;;;;;;;9.97;24.81;99791.22;5112645;28;20055;-60
2022/03/12 01:08:16;;;;;;;5.28;4.22;;;;;;;9.96;24.72;99789.50;5112744;28;20051;-62
2022/03/12 01:10:44;;;;;;;5.65;4.28;;;;;;;9.93;24.70;99784.41;5111172;28;20051;-61
2022/03/12 01:13:11;;;;;;;7.78;4.15;;;;;;;9.91;24.83;99795.00;5112327;28;20039;-62
2022/03/12 01:15:39;;;;;;;7.38;4.57;;;;;;;9.88;24.90;99794.34;5112468;28;20407;-60
2022/03/12 01:18:12;;;;;;;8.93;4.85;;;;;;;9.84;24.92;99796.28;5112438;28;20059;-60
2022/03/12 01:20:40;;;;;;;8.85;4.50;;;;;;;9.83;24.76;99806.88;5111151;28;20052;-60
2022/03/12 01:23:08;;;;;;;6.07;4.47;;;;;;;9.80;24.98;99807.03;5112606;28;20047;-61
2022/03/12 01:25:35;;;;;;;7.07;4.60;;;;;;;9.76;24.99;99809.00;5112581;28;20486;-60
2022/03/12 01:28:02;;;;;;;6.10;4.18;;;;;;;9.72;25.04;99805.66;5112169;28;20061;-59
2022/03/12 01:30:30;;;;;;;6.10;4.28;;;;;;;9.69;24.84;99803.22;5111958;28;20047;-61
2022/03/12 01:32:58;;;;;;;8.68;3.92;;;;;;;9.67;25.14;99799.78;5111445;27;20502;-60
2022/03/12 01:35:25;;;;;;;6.85;4.30;;;;;;;9.64;25.04;99810.47;5111020;28;20047;-62
2022/03/12 01:37:52;;;;;;;6.40;4.18;;;;;;;9.62;25.23;99797.44;5110922;28;20070;-61
2022/03/12 01:40:19;;;;;;;8.02;4.43;;;;;;;9.60;25.14;99803.66;5111831;28;20518;-59
2022/03/12 01:42:46;;;;;;;5.40;3.78;;;;;;;9.58;25.02;99800.28;5111524;28;20055;-60
2022/03/12 01:45:23;;;;;;;7.35;4.20;;;;;;;9.53;25.21;99792.63;5112141;28;20043;-59
2022/03/12 01:47:51;;;;;;;7.50;4.30;;;;;;;9.54;25.15;99793.50;5112139;28;20208;-60
2022/03/12 01:50:20;;;;;;;6.05;4.25;;;;;;;9.49;25.17;99794.56;5111564;28;20047;-61
2022/03/12 01:52:48;;;;;;;11.32;4.25;;;;;;;9.47;25.22;99796.44;5111760;28;20054;-61
2022/03/12 01:55:15;;;;;;;6.22;3.92;;;;;;;9.45;25.29;99800.91;5110457;28;20043;-60
2022/03/12 01:57:41;;;;;;;6.60;4.13;;;;;;;9.41;25.37;99801.16;5111922;28;20055;-63
2022/03/12 02:00:23;;;;;;;9.30;4.40;;;;;;;9.36;25.57;99796.13;5111841;28;20096;-61
2022/03/12 02:02:53;;;;;;;8.43;3.85;;;;;;;9.37;25.16;99806.56;5111729;28;20044;-60
2022/03/12 02:05:23;;;;;;;7.40;3.70;;;;;;;9.36;25.36;99798.75;5111843;28;20062;-60
2022/03/12 02:07:49;;;;;;;7.70;4.22;;;;;;;9.34;25.54;99795.34;5111906;28;20504;-60
2022/03/12 02:10:18;;;;;;;7.32;3.90;;;;;;;9.31;25.59;99800.78;5111197;28;20097;-61
2022/03/12 02:12:45;;;;;;;5.70;4.00;;;;;;;9.29;25.75;99798.22;5111592;28;20381;-60
2022/03/12 02:15:12;;;;;;;4.88;3.38;;;;;;;9.28;25.78;99787.78;5111595;28;20051;-61
2022/03/12 02:17:38;;;;;;;5.97;3.70;;;;;;;9.27;25.57;99792.19;5111401;28;20059;-60
2022/03/12 02:20:06;;;;;;;7.68;4.00;;;;;;;9.25;25.71;99791.44;5111193;28;20059;-60
2022/03/12 02:22:32;;;;;;;8.38;4.55;;;;;;;9.24;25.55;99789.75;5109845;28;20043;-60
2022/03/12 02:24:59;;;;;;;9.48;3.95;;;;;;;9.22;25.63;99796.84;5111257;28;20097;-60
2022/03/12 02:27:26;;;;;;;7.88;4.20;;;;;;;9.20;25.61;99786.41;5111213;28;20043;-61
2022/03/12 02:29:53;;;;;;;5.32;3.60;;;;;;;9.19;25.55;99797.00;5111066;28;20144;-61
2022/03/12 02:32:20;;;;;;;6.90;4.25;;;;;;;9.18;25.95;99795.28;5111059;28;20055;-60
2022/03/12 02:34:49;;;;;;;5.45;3.70;;;;;;;9.16;25.78;99792.75;5111333;28;20043;-60
2022/03/12 02:37:29;;;;;;;6.30;3.75;;;;;;;9.14;26.11;99797.22;5109688;28;20097;-61
2022/03/12 02:39:58;;;;;;;5.45;3.80;;;;;;;9.14;26.09;99797.22;5110872;28;20126;-60
2022/03/12 02:42:28;;;;;;;7.30;4.10;;;;;;;9.13;26.06;99799.00;5111008;28;20389;-62
2022/03/12 02:44:56;;;;;;;5.75;3.80;;;;;;;9.13;26.19;99796.38;5109597;28;20051;-63
2022/03/12 02:47:28;;;;;;;6.38;4.05;;;;;;;9.10;25.83;99801.81;5109718;28;20043;-60
2022/03/12 02:49:58;;;;;;;7.28;4.35;;;;;;;9.12;26.06;99799.06;5110501;28;20450;-60
2022/03/12 02:52:29;;;;;;;5.22;3.83;;;;;;;9.09;26.16;99797.44;5111212;28;20055;-60
2022/03/12 02:54:58;;;;;;;8.27;4.10;;;;;;;9.09;26.04;99799.25;5109923;28;20112;-60
2022/03/12 02:57:27;;;;;;;5.60;3.50;;;;;;;9.09;26.41;99797.44;5110909;28;20476;-63
2022/03/12 02:59:59;;;;;;;6.47;3.78;;;;;;;9.09;26.41;99801.88;5110955;28;20109;-60
2022/03/12 03:03:01;;;;;;;5.22;3.47;;;;;;;9.09;26.57;99799.25;5109480;28;20487;-61
2022/03/12 03:05:35;;;;;;;8.32;3.70;;;;;;;9.09;26.68;99797.44;5109093;28;20052;-61
2022/03/12 03:08:07;;;;;;;7.07;3.60;;;;;;;9.09;26.97;99797.44;5110805;28;20051;-60
2022/03/12 03:10:36;;;;;;;5.40;3.33;;;;;;;9.12;26.10;99804.31;5109214;28;20541;-60
2022/03/12 03:13:16;;;;;;;9.75;3.70;;;;;;;9.09;26.72;99807.94;5110539;28;20449;-61
2022/03/12 03:15:49;;;;;;;7.97;3.60;;;;;;;9.11;26.80;99811.38;5110546;28;20043;-61
2022/03/12 03:18:16;;;;;;;;;;;;;;;9.15;26.36;99817.31;5111085;28;20190;-61
2022/03/12 03:20:45;;;;;;;6.47;3.55;;;;;;;9.18;26.48;99811.91;5110329;28;20420;-62
2022/03/12 03:23:12;;;;;;;5.90;3.40;;;;;;;9.17;26.52;99809.34;5109178;28;20445;-62
2022/03/12 03:25:45;;;;;;;6.05;3.90;;;;;;;9.16;26.65;99819.00;5109556;28;20126;-59
2022/03/12 03:28:12;;;;;;;6.43;3.63;;;;;;;9.16;26.48;99816.38;5110441;28;20059;-61
2022/03/12 03:30:39;;;;;;;3.92;3.15;;;;;;;9.16;26.44;99813.75;5110112;28;20052;-61
2022/03/12 03:33:09;;;;;;;6.20;3.65;;;;;;;9.15;26.24;99822.56;5109608;28;20422;-60
2022/03/12 03:35:38;;;;;;;6.63;4.10;;;;;;;9.18;26.29;99821.56;5110553;28;20052;-61
2022/03/12 03:38:06;;;;;;;8.15;3.70;;;;;;;9.19;26.45;99831.16;5110623;28;20483;-60
2022/03/12 03:40:33;;;;;;;6.72;3.63;;;;;;;9.20;26.44;99830.22;5108744;28;20074;-60
2022/03/12 03:43:00;;;;;;;5.22;3.70;;;;;;;9.21;26.50;99829.28;5110317;28;20074;-61
2022/03/12 03:45:29;;;;;;;5.07;3.63;;;;;;;9.22;26.50;99828.34;5110332;28;20051;-60
2022/03/12 03:47:56;;;;;;;4.97;3.25;;;;;;;9.24;26.62;99829.13;5110514;28;20059;-60
2022/03/12 03:50:27;;;;;;;6.13;3.95;;;;;;;9.25;26.26;99836.94;5110260;28;20077;-60
2022/03/12 03:53:03;;;;;;;6.30;3.60;;;;;;;9.24;25.78;99834.41;5108941;28;20047;-61
2022/03/12 03:55:32;;;;;;;7.45;3.78;;;;;;;9.27;26.42;99839.47;5111593;28;20050;-61
2022/03/12 03:57:59;;;;;;;6.95;4.03;;;;;;;9.28;26.54;99841.19;5113970;28;20081;-60
2022/03/12 04:00:27;;;;;;;5.40;3.80;;;;;;;9.29;26.17;99842.03;5114120;28;20116;-61
2022/03/12 04:03:07;;;;;;;5.63;3.67;;;;;;;9.29;25.96;99842.03;5112422;28;20458;-59
2022/03/12 04:05:36;;;;;;;4.75;3.47;;;;;;;9.29;26.04;99850.75;5113911;28;20446;-61
2022/03/12 04:08:07;;;;;;;5.43;3.67;;;;;;;9.29;25.89;99847.28;5113711;28;20043;-60
2022/03/12 04:10:35;;;;;;;6.15;3.65;;;;;;;9.27;25.91;99855.22;5113217;28;20391;-61
2022/03/12 04:13:20;;;;;;;5.18;3.47;;;;;;;9.23;26.29;99851.91;5113735;28;20047;-61
2022/03/12 04:15:49;;;;;;;10.65;4.40;;;;;;;9.27;26.36;99851.78;5112584;28;20048;-60
2022/03/12 04:18:17;;;;;;;7.80;4.20;;;;;;;9.25;25.93;99852.72;5113861;28;20097;-60
2022/03/12 04:20:48;;;;;;;5.30;3.40;;;;;;;9.25;26.23;99857.09;5113364;27;20054;-60
2022/03/12 04:23:21;;;;;;;5.25;3.90;;;;;;;9.24;26.15;99861.50;5113506;28;20140;-60
2022/03/12 04:25:49;;;;;;;9.07;3.92;;;;;;;9.23;26.27;99851.06;5113799;28;20496;-60
2022/03/12 04:28:16;;;;;;;5.45;3.80;;;;;;;9.23;26.12;99853.69;5113498;28;20040;-59
2022/03/12 04:30:43;;;;;;;5.07;3.80;;;;;;;9.23;26.42;99867.69;5113006;28;20496;-60
2022/03/12 04:33:10;;;;;;;6.00;4.20;;;;;;;9.22;26.47;99863.34;5113148;28;20109;-60
2022/03/12 04:35:38;;;;;;;8.10;4.50;;;;;;;9.22;26.14;99863.34;5113706;28;20116;-61
2022/03/12 04:38:07;;;;;;;6.30;4.30;;;;;;;9.21;26.23;99863.44;5112084;28;20168;-61
2022/03/12 04:40:34;;;;;;;5.50;3.85;;;;;;;9.20;26.28;99873.06;5112384;28;20054;-60
2022/03/12 04:43:02;;;;;;;5.20;3.63;;;;;;;9.19;26.09;99871.38;5113133;28;20499;-62
2022/03/12 04:45:29;;;;;;;8.15;4.35;;;;;;;9.18;26.27;99869.69;5111772;28;20460;-60
2022/03/12 04:47:55;;;;;;;8.55;4.15;;;;;;;9.16;26.09;99882.03;5111731;28;20050;-61
2022/03/12 04:50:23;;;;;;;5.65;4.05;;;;;;;9.15;26.11;99872.47;5111754;28;20096;-60
2022/03/12 04:52:52;;;;;;;6.55;3.90;;;;;;;9.14;26.48;99873.38;5111938;28;20048;-62
2022/03/12 04:55:21;;;;;;;6.32;3.55;;;;;;;9.11;26.30;99877.03;5112692;28;20074;-60
2022/03/12 04:57:49;;;;;;;5.47;4.00;;;;;;;9.11;26.50;99884.03;5111641;28;20492;-61
2022/03/12 05:00:38;;;;;;;8.52;3.80;;;;;;;9.08;26.39;99885.03;5112714;28;20408;-61
2022/03/12 05:03:18;;;;;;;6.45;3.78;;;;;;;9.03;26.42;99876.53;5113013;28;20105;-59
2022/03/12 05:05:48;;;;;;;6.63;4.30;;;;;;;9.03;26.30;99886.19;5112612;28;20055;-60
2022/03/12 05:08:24;;;;;;;6.88;4.15;;;;;;;8.97;26.65;99888.19;5110699;28;20048;-60
2022/03/12 05:10:53;;;;;;;6.30;3.80;;;;;;;8.96;26.69;99889.13;5112372;28;20044;-59
2022/03/12 05:13:22;;;;;;;6.30;4.00;;;;;;;8.94;26.80;99884.88;5111313;28;20112;-61
2022/03/12 05:15:52;;;;;;;5.20;3.88;;;;;;;8.90;26.91;99883.31;5111473;28;20599;-60
2022/03/12 05:18:22;;;;;;;6.78;4.10;;;;;;;8.88;26.72;99885.16;5112611;28;20092;-61
2022/03/12 05:20:50;;;;;;;7.45;4.25;;;;;;;8.84;26.91;99890.56;5112255;28;20077;-59
2022/03/12 05:23:17;;;;;;;6.47;4.22;;;;;;;8.81;27.20;99884.59;5112177;28;20108;-60
2022/03/12 05:25:47;;;;;;;7.07;4.15;;;;;;;8.77;26.91;99894.41;5111330;28;20040;-62
2022/03/12 05:28:19;;;;;;;6.40;4.03;;;;;;;8.72;26.82;99889.34;5112079;28;20437;-62
2022/03/12 05:30:46;;;;;;;6.82;4.32;;;;;;;8.71;26.74;99899.94;5112193;28;20062;-60
2022/03/12 05:33:16;;;;;;;7.47;4.13;;;;;;;8.67;26.92;99899.22;5112111;28;20056;-60
2022/03/12 05:35:45;;;;;;;9.25;4.28;;;;;;;8.64;26.84;99886.25;5110811;28;20051;-60
2022/03/12 05:38:13;;;;;;;12.85;4.78;;;;;;;8.63;27.34;99902.91;5111115;28;20051;-60
2022/03/12 05:40:44;;;;;;;6.28;4.45;;;;;;;8.62;27.22;99900.34;5112127;28;20142;-62
2022/03/12 05:43:15;;;;;;;5.78;3.88;;;;;;;8.62;27.28;99913.47;5110605;28;20055;-61
2022/03/12 05:45:47;;;;;;;7.32;4.43;;;;;;;8.61;27.40;99910.00;5112143;28;20062;-61
2022/03/12 05:48:15;;;;;;;7.05;4.35;;;;;;;8.62;27.49;99911.72;5111783;28;20096;-59
2022/03/12 05:50:43;;;;;;;8.35;4.78;;;;;;;8.63;27.66;99913.41;5110577;28;20048;-60
2022/03/12 05:53:10;;;;;;;6.78;4.25;;;;;;;8.66;27.61;99917.66;5112200;28;20187;-60
2022/03/12 05:55:41;;;;;;;5.47;4.32;;;;;;;8.65;27.68;99924.69;5112086;28;20051;-61
2022/03/12 05:58:09;;;;;;;5.82;4.43;;;;;;;8.67;27.70;99924.63;5111862;28;20043;-60
2022/03/12 06:00:39;;;;;;;6.93;4.50;;;;;;;8.68;27.76;99924.53;5110204;28;20048;-60
2022/03/12 06:03:08;;;;;;;7.05;4.18;;;;;;;8.69;27.71;99918.38;5111837;28;20130;-60
2022/03/12 06:05:40;;;;;;;9.90;4.10;;;;;;;8.72;27.78;99926.09;5112164;28;20048;-60
2022/03/12 06:08:08;;;;;;;9.80;4.55;;;;;;;8.75;27.80;99929.50;5111600;28;20047;-59
2022/03/12 06:10:35;;;;;;;6.53;4.18;;;;;;;8.77;27.91;99928.50;5111228;28;20556;-61
2022/03/12 06:13:06;;;;;;;6.40;4.53;;;;;;;8.81;28.13;99931.84;5111626;28;20396;-59
2022/03/12 06:15:34;;;;;;;8.63;4.43;;;;;;;8.84;28.01;99929.06;5111222;28;20557;-60
2022/03/12 06:18:01;;;;;;;7.03;4.40;;;;;;;8.87;28.31;99926.31;5111164;28;20549;-60
2022/03/12 06:20:28;;;;;;;6.55;4.25;;;;;;;8.91;28.38;99933.13;5111425;28;20052;-61
2022/03/12 06:22:54;;;;;;;7.57;4.50;;;;;;;8.94;28.06;99938.22;5111441;28;20392;-60
2022/03/12 06:25:23;;;;;;;7.95;4.65;;;;;;;8.96;28.21;99933.75;5111482;28;20404;-62
2022/03/12 06:27:56;;;;;;;7.47;4.72;;;;;;;8.99;28.31;99938.00;5110553;28;20119;-60
2022/03/12 06:30:26;;;;;;;9.50;4.93;;;;;;;9.03;28.29;99942.19;5109881;28;20047;-60
2022/03/12 06:32:55;;;;;;;12.70;4.95;;;;;;;9.07;28.52;99953.38;5109830;28;20056;-61
2022/03/12 06:35:24;;;;;;;7.47;4.88;;;;;;;9.09;28.63;99954.19;5110223;28;20056;-61
2022/03/12 06:37:51;;;;;;;7.82;4.55;;;;;;;9.12;28.74;99956.63;5110117;28;20060;-59
2022/03/12 06:40:18;;;;;;;7.50;4.63;;;;;;;9.15;28.78;99956.50;5109897;28;20062;-62
2022/03/12 06:42:47;;;;;;;8.25;5.00;;;;;;;9.16;28.99;99952.09;5111045;28;20078;-60
2022/03/12 06:45:15;;;;;;;6.97;4.70;;;;;;;9.19;28.87;99963.31;5110215;28;20051;-62
2022/03/12 06:47:45;;;;;;;7.47;4.78;;;;;;;9.21;29.00;99966.72;5111466;28;20051;-61
2022/03/12 06:50:15;;;;;;;8.40;5.00;;;;;;;9.24;28.99;99966.56;5109857;28;20047;-62
2022/03/12 06:52:43;;;;;;;8.77;5.05;;;;;;;9.27;29.04;99975.22;5111030;28;20040;-60
2022/03/12 06:55:10;;;;;;;9.70;4.50;;;;;;;9.30;28.75;99968.03;5111749;28;20058;-63
2022/03/12 06:57:38;;;;;;;9.45;5.68;;;;;;;9.33;29.13;99974.91;5110116;28;20093;-60
2022/03/12 07:00:07;;;;;;;8.90;5.10;;;;;;;9.36;29.26;99980.03;5111064;28;20051;-60
2022/03/12 07:02:33;;;;;;;9.80;4.38;;;;;;;9.39;28.81;99979.91;5109567;28;20051;-61
2022/03/12 07:05:00;;;;;;;7.20;5.25;;;;;;;9.40;28.82;99986.84;5110349;28;20093;-62
2022/03/12 07:07:26;;;;;;;9.80;4.95;;;;;;;9.44;29.04;99979.66;5110893;28;20112;-60
2022/03/12 07:09:53;;;;;;;6.65;4.55;;;;;;;9.46;28.90;99981.28;5110519;28;20048;-59
2022/03/12 07:12:19;;;;;;;8.32;5.07;;;;;;;9.51;29.08;99978.44;5110824;28;20108;-60
2022/03/12 07:14:46;;;;;;;7.15;4.95;;;;;;;9.55;28.94;99984.38;5110483;28;20458;-63
2022/03/12 07:17:13;;;;;;;8.90;5.22;;;;;;;9.59;28.77;99981.53;5111051;28;20047;-60
2022/03/12 07:19:39;;;;;;;7.22;4.82;;;;;;;9.64;28.69;99983.94;5110965;28;20047;-60
2022/03/12 07:22:06;;;;;;;6.97;5.20;;;;;;;9.68;29.02;99980.22;5110981;28;20495;-60
2022/03/12 07:24:35;;;;;;;9.40;5.70;;;;;;;9.75;29.15;99983.41;5111039;28;20051;-61
2022/03/12 07:27:02;;;;;;;9.32;4.85;;;;;;;9.83;29.22;99990.91;5110990;28;20047;-60
2022/03/12 07:29:31;;;;;;;7.57;5.10;;;;;;;9.90;29.22;99981.78;5110395;28;20480;-60
2022/03/12 07:31:57;;;;;;;9.32;4.70;;;;;;;9.97;29.26;99983.16;5114844;28;20055;-60
2022/03/12 07:34:24;;;;;;;8.23;5.05;;;;;;;10.04;29.20;99992.47;5115012;28;20372;-59
2022/03/12 07:36:51;;;;;;;9.48;5.68;;;;;;;10.15;29.35;99985.78;5114694;28;20050;-62
2022/03/12 07:39:17;;;;;;;8.38;5.18;;;;;;;10.25;29.37;99988.81;5114136;28;20503;-60
2022/03/12 07:41:44;;;;;;;10.07;5.35;;;;;;;10.35;29.59;99994.44;5114413;28;20480;-59
2022/03/12 07:44:10;;;;;;;9.07;5.70;;;;;;;10.44;29.80;99993.97;5114474;28;20104;-62
2022/03/12 07:46:37;;;;;;;7.90;5.38;;;;;;;10.55;29.57;99999.50;5113818;28;20046;-61
2022/03/12 07:49:04;;;;;;;7.60;5.03;;;;;;;10.66;29.52;99995.47;5114068;28;20055;-61
2022/03/12 07:51:32;;;;;;;7.55;4.97;;;;;;;10.75;29.67;99996.75;5113914;27;20051;-59
2022/03/12 07:54:00;;;;;;;8.77;5.10;;;;;;;10.86;29.73;100002.28;5113168;28;20450;-59
2022/03/12 07:56:27;;;;;;;9.07;5.45;;;;;;;10.95;29.22;99991.25;5114402;28;20059;-61
2022/03/12 07:58:55;;;;;;;8.00;5.75;;;;;;;11.03;29.28;99990.81;5113984;28;20052;-59
2022/03/12 08:01:22;;;;;;;8.60;5.50;;;;;;;11.12;29.43;100009.69;5112278;28;20539;-62
2022/03/12 08:03:49;;;;;;;10.43;5.63;;;;;;;11.17;29.50;99997.97;5113667;28;20050;-60
2022/03/12 08:06:16;;;;;;;9.50;6.45;;;;;;;11.24;29.45;100006.38;5114273;28;20092;-61
2022/03/12 08:08:43;;;;;;;7.68;5.57;;;;;;;11.29;29.30;100001.69;5114125;27;20055;-60
2022/03/12 08:11:25;;;;;;;9.85;5.90;;;;;;;11.36;29.41;99998.72;5113629;28;20079;-62
2022/03/12 08:13:54;;;;;;;8.43;5.72;;;;;;;11.41;29.48;99996.69;5113993;28;20056;-60
2022/03/12 08:16:21;;;;;;;10.27;5.40;;;;;;;11.44;29.29;100004.41;5113835;28;20040;-60
2022/03/12 08:18:48;;;;;;;9.10;5.60;;;;;;;11.47;29.34;100002.44;5112337;28;20094;-63
2022/03/12 08:21:15;;;;;;;11.88;6.25;;;;;;;11.49;29.46;100007.63;5113566;28;20105;-60
2022/03/12 08:23:42;;;;;;;7.93;5.70;;;;;;;11.51;29.55;100011.03;5113859;28;20044;-62
2022/03/12 08:26:09;;;;;;;7.68;5.80;;;;;;;11.53;29.84;100010.94;5112524;28;20040;-60
2022/03/12 08:28:36;;;;;;;10.20;5.90;;;;;;;11.56;29.67;100008.97;5112315;28;20077;-60
2022/03/12 08:31:04;;;;;;;7.00;5.18;;;;;;;11.58;29.98;100011.53;5112871;28;20052;-62
2022/03/12 08:33:31;;;;;;;8.02;5.43;;;;;;;11.60;29.66;100010.50;5112449;28;20052;-60
2022/03/12 08:35:58;;;;;;;12.40;5.60;;;;;;;11.63;29.90;100003.38;5113500;28;20048;-60
2022/03/12 08:38:26;;;;;;;7.05;5.25;;;;;;;11.66;30.31;100004.03;5113319;28;20047;-60
2022/03/12 08:40:53;;;;;;;8.80;5.55;;;;;;;11.71;30.06;100009.03;5113125;28;20120;-60
2022/03/12 08:43:21;;;;;;;8.02;5.50;;;;;;;11.76;30.12;100006.13;5113083;28;20105;-60
2022/03/12 08:45:48;;;;;;;9.10;5.72;;;;;;;11.82;30.14;100016.34;5113040;28;20048;-60
2022/03/12 08:48:16;;;;;;;11.27;5.50;;;;;;;11.88;30.20;100017.78;5112986;28;20043;-60
2022/03/12 08:50:45;;;;;;;8.90;5.20;;;;;;;11.94;30.40;100034.09;5111359;28;20047;-59
2022/03/12 08:53:12;;;;;;;9.57;5.80;;;;;;;12.00;30.23;100019.66;5112554;28;20044;-59
2022/03/12 08:55:39;;;;;;;8.98;5.47;;;;;;;12.06;30.52;100019.34;5111608;28;20109;-62
2022/03/12 08:58:06;;;;;;;6.90;5.13;;;;;;;12.14;30.63;100024.16;5113134;28;20051;-59
2022/03/12 09:00:33;;;;;;;6.20;4.93;;;;;;;12.21;30.58;100019.38;5113217;28;20297;-60
2022/03/12 09:03:00;;;;;;;8.10;5.22;;;;;;;12.27;30.70;100024.28;5111589;28;20488;-59
2022/03/12 09:05:27;;;;;;;9.60;5.47;;;;;;;12.34;30.42;100028.25;5112823;28;20097;-62
2022/03/12 09:07:54;;;;;;;10.05;5.65;;;;;;;12.42;30.72;100026.94;5112718;28;20108;-60
2022/03/12 09:10:22;;;;;;;10.95;5.22;;;;;;;12.47;30.52;100019.59;5112616;28;20075;-64
2022/03/12 09:12:49;;;;;;;9.60;4.82;;;;;;;12.52;30.56;100030.72;5112490;28;20616;-60
2022/03/12 09:15:21;;;;;;;7.95;5.13;;;;;;;12.57;30.60;100035.72;5111846;28;20124;-62
2022/03/12 09:17:47;;;;;;;8.05;5.15;;;;;;;12.62;30.82;100036.28;5111854;28;20048;-61
2022/03/12 09:20:14;;;;;;;8.15;4.85;;;;;;;12.67;30.92;100033.38;5112799;28;20385;-60
2022/03/12 09:22:41;;;;;;;8.10;5.47;;;;;;;12.70;30.72;100030.53;5112894;28;20298;-60
2022/03/12 09:25:09;;;;;;;6.90;5.30;;;;;;;12.76;30.83;100032.81;5112572;28;20113;-60
2022/03/12 09:27:36;;;;;;;9.50;5.47;;;;;;;12.81;31.01;100027.22;5112472;28;20071;-63
2022/03/12 09:30:04;;;;;;;8.45;5.72;;;;;;;12.86;31.21;100033.94;5112467;28;20100;-60
2022/03/12 09:32:30;;;;;;;8.27;5.30;;;;;;;12.93;30.92;100034.38;5111262;28;20093;-60
2022/03/12 09:34:57;;;;;;;13.82;5.53;;;;;;;13.00;30.57;100032.22;5112553;28;20097;-61
2022/03/12 09:37:24;;;;;;;7.20;5.63;;;;;;;13.05;30.78;100030.16;5112842;28;20052;-60
2022/03/12 09:39:51;;;;;;;11.38;5.53;;;;;;;13.11;31.20;100035.03;5112258;28;20134;-60
2022/03/12 09:42:18;;;;;;;7.68;5.28;;;;;;;13.17;31.33;100036.44;5112196;28;20112;-59
2022/03/12 09:44:44;;;;;;;7.55;5.30;;;;;;;13.23;31.38;100043.97;5111392;28;20100;-61
2022/03/12 09:47:12;;;;;;;13.05;5.57;;;;;;;13.29;31.14;100042.75;5112270;28;20051;-59
2022/03/12 09:49:39;;;;;;;6.25;4.85;;;;;;;13.36;31.30;100049.34;5112286;28;20043;-59
2022/03/12 09:52:06;;;;;;;6.72;5.40;;;;;;;13.42;31.48;100048.94;5111507;28;20108;-59
2022/03/12 09:54:32;;;;;;;8.75;5.05;;;;;;;13.50;31.69;100056.41;5111538;28;20808;-60
2022/03/12 09:56:59;;;;;;;8.10;5.63;;;;;;;13.56;31.75;100068.38;5112064;28;20047;-61
2022/03/12 09:59:25;;;;;;;8.88;5.65;;;;;;;13.60;31.25;100054.00;5111752;28;20051;-60
2022/03/12 10:01:53;;;;;;;7.32;5.65;;;;;;;13.63;31.53;100056.47;5111688;28;20052;-61
2022/03/12 10:04:20;;;;;;;9.48;5.88;;;;;;;13.68;31.30;100059.66;5111591;28;20116;-61
2022/03/12 10:06:48;;;;;;;9.43;5.65;;;;;;;13.74;31.27;100054.91;5111999;28;20491;-61
2022/03/12 10:09:15;;;;;;;7.72;5.80;;;;;;;13.80;31.17;100060.63;5111395;28;20552;-60
2022/03/12 10:11:41;;;;;;;8.70;5.22;;;;;;;13.85;31.35;100052.41;5111749;28;20043;-60
2022/03/12 10:14:09;;;;;;;7.72;5.65;;;;;;;13.90;31.23;100052.09;5111359;28;20400;-60
2022/03/12 10:16:35;;;;;;;10.88;5.72;;;;;;;13.98;31.65;100043.66;5111179;28;20040;-60
2022/03/12 10:19:02;;;;;;;9.02;6.18;;;;;;;14.05;31.71;100059.00;5111297;28;20166;-59
2022/03/12 10:21:30;;;;;;;8.85;5.28;;;;;;;14.17;31.64;100064.44;5111283;28;20055;-61
2022/03/12 10:23:58;;;;;;;9.70;5.55;;;;;;;14.28;31.74;100056.59;5110297;28;20480;-60
2022/03/12 10:26:24;;;;;;;8.93;5.35;;;;;;;14.39;32.01;100053.22;5110212;28;20063;-61
2022/03/12 10:28:51;;;;;;;6.38;5.13;;;;;;;14.51;32.03;100062.16;5111250;28;20047;-60
2022/03/12 10:31:19;;;;;;;8.77;6.13;;;;;;;14.63;32.06;100068.41;5111105;28;20060;-60
2022/03/12 10:33:46;;;;;;;7.35;5.72;;;;;;;14.75;31.91;100073.78;5110542;28;20126;-61
2022/03/12 10:36:16;;;;;;;10.98;5.80;;;;;;;14.83;31.92;100077.66;5111094;28;20551;-60
2022/03/12 10:38:52;;;;;;;7.72;6.03;;;;;;;14.89;32.56;100081.66;5111106;28;20124;-61
2022/03/12 10:41:19;;;;;;;8.98;5.95;;;;;;;14.96;31.77;100074.97;5110983;28;20043;-62
2022/03/12 10:43:50;;;;;;;9.52;6.15;;;;;;;15.00;31.39;100080.06;5110829;28;20055;-61
2022/03/12 10:46:27;;;;;;;10.52;5.93;;;;;;;15.04;31.79;100070.94;5110957;28;20483;-60
2022/03/12 10:48:59;;;;;;;7.50;5.20;;;;;;;15.14;31.95;100079.91;5110511;28;20108;-61
2022/03/12 10:51:36;;;;;;;7.80;5.95;;;;;;;15.23;32.81;100087.25;5109754;28;20039;-61
2022/03/12 10:54:09;;;;;;;7.97;6.00;;;;;;;15.33;31.55;100094.53;5110993;28;20044;-60
2022/03/12 10:56:49;;;;;;;8.60;5.68;;;;;;;15.41;31.85;100092.19;5109937;28;20043;-61
2022/03/12 10:59:19;;;;;;;8.50;5.97;;;;;;;15.53;31.80;100089.56;5110930;28;20048;-61
2022/03/12 11:02:00;;;;;;;9.20;5.88;;;;;;;15.60;31.90;100083.72;5110867;28;20052;-62
2022/03/12 11:04:30;;;;;;;8.80;6.47;;;;;;;15.68;31.39;100084.97;5112525;28;20062;-60
2022/03/12 11:06:59;;;;;;;10.32;6.57;;;;;;;15.75;32.09;100087.03;5113157;28;20096;-63
2022/03/12 11:09:34;;;;;;;8.30;6.03;;;;;;;15.86;32.02;100077.44;5113753;28;20395;-61
2022/03/12 11:12:04;;;;;;;7.10;5.78;;;;;;;16.01;31.60;100081.63;5115147;28;20104;-60
2022/03/12 11:14:31;;;;;;;8.20;6.10;;;;;;;16.17;31.72;100093.78;5114911;28;20047;-60
2022/03/12 11:16:59;;;;;;;8.68;6.75;;;;;;;16.32;31.57;100098.88;5115088;28;20055;-60
2022/03/12 11:19:42;;;;;;;8.63;6.40;;;;;;;16.48;31.63;100102.06;5114741;28;20093;-61
2022/03/12 11:22:11;;;;;;;11.05;7.57;;;;;;;16.61;31.22;100098.47;5115040;28;20071;-61
2022/03/12 11:24:50;;;;;;;11.90;6.80;;;;;;;16.75;32.11;100108.88;5115515;28;20055;-60
2022/03/12 11:27:34;;;;;;;10.13;6.78;;;;;;;16.97;31.86;100099.22;5113565;28;20035;-59
2022/03/12 11:30:08;;;;;;;8.25;6.32;;;;;;;17.30;31.66;100099.34;5114855;27;20052;-60
2022/03/12 11:32:42;;;;;;;8.82;6.40;;;;;;;17.75;32.35;100097.56;5114885;28;20101;-60
2022/03/12 11:35:15;;;;;;;9.82;7.47;;;;;;;18.26;32.05;100096.06;5114870;28;20412;-63
2022/03/12 11:37:42;;;;;;;7.22;6.45;;;;;;;18.85;31.36;100100.91;5114962;28;20059;-60
2022/03/12 11:40:16;;;;;;;7.45;6.63;;;;;;;19.43;30.40;100093.25;5114689;28;20058;-62
2022/03/12 11:42:43;;;;;;;8.48;6.40;;;;;;;20.01;30.50;100091.66;5113278;28;20056;-60